sensor_id;sensor_type;location;lat;lon;timestamp;temperature;humidity
26703;DHT22;14316;51.074;3.704;2023-07-20T00:02:02;16.90;99.90
26703;DHT22;14316;51.074;3.704;2023-07-20T00:04:31;16.90;99.90
26703;DHT22;14316;51.074;3.704;2023-07-20T00:06:56;16.90;99.90
26703;DHT22;14316;51.074;3.704;2023-07-20T00:09:23;16.90;99.90
26703;DHT22;14316;51.074;3.704;2023-07-20T00:11:50;16.80;99.90
26703;DHT22;14316;51.074;3.704;2023-07-20T00:14:17;16.80;99.90
26703;DHT22;14316;51.074;3.704;2023-07-20T00:16:46;16.70;99.90
26703;DHT22;14316;51.074;3.704;2023-07-20T00:19:14;16.70;99.90
26703;DHT22;14316;51.074;3.704;2023-07-20T00:21:42;16.70;99.90
26703;DHT22;14316;51.074;3.704;2023-07-20T00:24:08;16.60;99.90
26703;DHT22;14316;51.074;3.704;2023-07-20T00:26:34;16.60;99.90
26703;DHT22;14316;51.074;3.704;2023-07-20T00:29:00;16.60;99.90
26703;DHT22;14316;51.074;3.704;2023-07-20T00:31:26;16.50;99.90
26703;DHT22;14316;51.074;3.704;2023-07-20T00:33:53;16.50;99.90
26703;DHT22;14316;51.074;3.704;2023-07-20T00:36:18;16.40;99.90
26703;DHT22;14316;51.074;3.704;2023-07-20T00:38:45;16.50;99.90
26703;DHT22;14316;51.074;3.704;2023-07-20T00:41:11;16.40;99.90
26703;DHT22;14316;51.074;3.704;2023-07-20T00:43:39;16.40;99.90
26703;DHT22;14316;51.074;3.704;2023-07-20T00:46:05;16.40;99.90
26703;DHT22;14316;51.074;3.704;2023-07-20T00:48:31;16.30;99.90
26703;DHT22;14316;51.074;3.704;2023-07-20T00:50:59;16.30;99.90
26703;DHT22;14316;51.074;3.704;2023-07-20T00:53:26;16.30;99.90
26703;DHT22;14316;51.074;3.704;2023-07-20T00:55:52;16.30;99.90
26703;DHT22;14316;51.074;3.704;2023-07-20T00:58:18;16.30;99.90
26703;DHT22;14316;51.074;3.704;2023-07-20T01:00:45;16.30;99.90
26703;DHT22;14316;51.074;3.704;2023-07-20T01:03:13;16.40;99.90
26703;DHT22;14316;51.074;3.704;2023-07-20T01:05:55;16.50;99.90
26703;DHT22;14316;51.074;3.704;2023-07-20T01:08:37;16.60;99.90
26703;DHT22;14316;51.074;3.704;2023-07-20T01:11:13;16.70;99.90
26703;DHT22;14316;51.074;3.704;2023-07-20T01:13:43;16.70;99.90
26703;DHT22;14316;51.074;3.704;2023-07-20T01:16:09;16.60;99.90
26703;DHT22;14316;51.074;3.704;2023-07-20T01:18:35;16.50;99.90
26703;DHT22;14316;51.074;3.704;2023-07-20T01:21:09;16.30;99.90
26703;DHT22;14316;51.074;3.704;2023-07-20T01:32:00;16.00;99.90
26703;DHT22;14316;51.074;3.704;2023-07-20T01:34:29;16.00;99.90
26703;DHT22;14316;51.074;3.704;2023-07-20T01:36:57;16.10;99.90
26703;DHT22;14316;51.074;3.704;2023-07-20T01:39:23;16.20;99.90
26703;DHT22;14316;51.074;3.704;2023-07-20T01:41:49;16.20;99.90
26703;DHT22;14316;51.074;3.704;2023-07-20T01:44:15;16.20;99.90
26703;DHT22;14316;51.074;3.704;2023-07-20T01:46:41;16.20;99.90
26703;DHT22;14316;51.074;3.704;2023-07-20T01:49:08;16.20;99.90
26703;DHT22;14316;51.074;3.704;2023-07-20T01:51:34;16.20;99.90
26703;DHT22;14316;51.074;3.704;2023-07-20T01:53:59;16.20;99.90
26703;DHT22;14316;51.074;3.704;2023-07-20T01:56:26;16.30;99.90
26703;DHT22;14316;51.074;3.704;2023-07-20T01:58:52;16.30;99.90
26703;DHT22;14316;51.074;3.704;2023-07-20T02:01:19;16.30;99.90
26703;DHT22;14316;51.074;3.704;2023-07-20T02:03:44;16.30;99.90
26703;DHT22;14316;51.074;3.704;2023-07-20T02:06:10;16.40;99.90
26703;DHT22;14316;51.074;3.704;2023-07-20T02:08:36;16.40;99.90
26703;DHT22;14316;51.074;3.704;2023-07-20T02:11:02;16.50;99.90
26703;DHT22;14316;51.074;3.704;2023-07-20T02:13:30;16.40;99.90
26703;DHT22;14316;51.074;3.704;2023-07-20T02:15:56;16.30;99.90
26703;DHT22;14316;51.074;3.704;2023-07-20T02:18:22;16.20;99.90
26703;DHT22;14316;51.074;3.704;2023-07-20T02:20:48;16.00;99.90
26703;DHT22;14316;51.074;3.704;2023-07-20T02:23:14;15.90;99.90
26703;DHT22;14316;51.074;3.704;2023-07-20T02:25:40;15.80;99.90
26703;DHT22;14316;51.074;3.704;2023-07-20T02:28:07;15.70;99.90
26703;DHT22;14316;51.074;3.704;2023-07-20T02:30:37;15.60;99.90
26703;DHT22;14316;51.074;3.704;2023-07-20T02:33:04;15.70;99.90
26703;DHT22;14316;51.074;3.704;2023-07-20T02:35:32;15.70;99.90
26703;DHT22;14316;51.074;3.704;2023-07-20T02:37:58;15.90;99.90
26703;DHT22;14316;51.074;3.704;2023-07-20T02:40:24;15.90;99.90
26703;DHT22;14316;51.074;3.704;2023-07-20T02:42:50;16.00;99.90
26703;DHT22;14316;51.074;3.704;2023-07-20T02:45:16;16.00;99.90
26703;DHT22;14316;51.074;3.704;2023-07-20T02:47:42;15.90;99.90
26703;DHT22;14316;51.074;3.704;2023-07-20T02:50:09;15.90;99.90
26703;DHT22;14316;51.074;3.704;2023-07-20T02:52:35;15.80;99.90
26703;DHT22;14316;51.074;3.704;2023-07-20T02:55:01;15.70;99.90
26703;DHT22;14316;51.074;3.704;2023-07-20T02:57:26;15.80;99.90
26703;DHT22;14316;51.074;3.704;2023-07-20T02:59:52;15.90;99.90
26703;DHT22;14316;51.074;3.704;2023-07-20T03:02:19;15.90;99.90
26703;DHT22;14316;51.074;3.704;2023-07-20T03:04:48;16.00;99.90
26703;DHT22;14316;51.074;3.704;2023-07-20T03:07:14;16.10;99.90
26703;DHT22;14316;51.074;3.704;2023-07-20T03:09:40;16.10;99.90
26703;DHT22;14316;51.074;3.704;2023-07-20T03:12:07;16.20;99.90
26703;DHT22;14316;51.074;3.704;2023-07-20T03:14:33;16.10;99.90
26703;DHT22;14316;51.074;3.704;2023-07-20T03:16:59;16.10;99.90
26703;DHT22;14316;51.074;3.704;2023-07-20T03:19:25;16.10;99.90
26703;DHT22;14316;51.074;3.704;2023-07-20T03:21:51;16.10;99.90
26703;DHT22;14316;51.074;3.704;2023-07-20T03:24:17;16.00;99.90
26703;DHT22;14316;51.074;3.704;2023-07-20T03:26:43;15.90;99.90
26703;DHT22;14316;51.074;3.704;2023-07-20T03:29:09;15.80;99.90
26703;DHT22;14316;51.074;3.704;2023-07-20T03:31:35;15.80;99.90
26703;DHT22;14316;51.074;3.704;2023-07-20T03:34:01;15.80;99.90
26703;DHT22;14316;51.074;3.704;2023-07-20T03:36:27;15.90;99.90
26703;DHT22;14316;51.074;3.704;2023-07-20T03:38:53;15.90;99.90
26703;DHT22;14316;51.074;3.704;2023-07-20T03:41:19;15.90;99.90
26703;DHT22;14316;51.074;3.704;2023-07-20T03:43:47;15.90;99.90
26703;DHT22;14316;51.074;3.704;2023-07-20T03:46:13;15.90;99.90
26703;DHT22;14316;51.074;3.704;2023-07-20T03:48:38;16.00;99.90
26703;DHT22;14316;51.074;3.704;2023-07-20T03:51:05;16.00;99.90
26703;DHT22;14316;51.074;3.704;2023-07-20T03:53:31;16.00;99.90
26703;DHT22;14316;51.074;3.704;2023-07-20T03:55:57;16.10;99.90
26703;DHT22;14316;51.074;3.704;2023-07-20T03:58:23;16.10;99.90
26703;DHT22;14316;51.074;3.704;2023-07-20T04:00:51;16.10;99.90
26703;DHT22;14316;51.074;3.704;2023-07-20T04:03:20;16.20;99.90
26703;DHT22;14316;51.074;3.704;2023-07-20T04:05:48;16.20;99.90
26703;DHT22;14316;51.074;3.704;2023-07-20T04:08:14;16.30;99.90
26703;DHT22;14316;51.074;3.704;2023-07-20T04:10:43;16.30;99.90
26703;DHT22;14316;51.074;3.704;2023-07-20T04:13:10;16.30;99.90
26703;DHT22;14316;51.074;3.704;2023-07-20T04:15:36;16.40;99.90
26703;DHT22;14316;51.074;3.704;2023-07-20T04:18:02;16.40;99.90
26703;DHT22;14316;51.074;3.704;2023-07-20T04:20:28;16.40;99.90
26703;DHT22;14316;51.074;3.704;2023-07-20T04:22:54;16.40;99.90
26703;DHT22;14316;51.074;3.704;2023-07-20T04:25:20;16.50;99.90
26703;DHT22;14316;51.074;3.704;2023-07-20T04:27:46;16.50;99.90
26703;DHT22;14316;51.074;3.704;2023-07-20T04:30:12;16.60;99.90
26703;DHT22;14316;51.074;3.704;2023-07-20T04:32:39;16.60;99.90
26703;DHT22;14316;51.074;3.704;2023-07-20T04:35:16;16.70;99.90
26703;DHT22;14316;51.074;3.704;2023-07-20T04:37:42;16.70;99.90
26703;DHT22;14316;51.074;3.704;2023-07-20T04:40:12;16.80;99.90
26703;DHT22;14316;51.074;3.704;2023-07-20T04:42:39;16.90;99.90
26703;DHT22;14316;51.074;3.704;2023-07-20T04:45:05;17.00;99.90
26703;DHT22;14316;51.074;3.704;2023-07-20T04:47:31;17.00;99.90
26703;DHT22;14316;51.074;3.704;2023-07-20T04:49:57;17.10;99.90
26703;DHT22;14316;51.074;3.704;2023-07-20T04:52:23;17.20;99.90
26703;DHT22;14316;51.074;3.704;2023-07-20T04:54:49;17.40;99.90
26703;DHT22;14316;51.074;3.704;2023-07-20T04:57:15;17.50;99.90
26703;DHT22;14316;51.074;3.704;2023-07-20T04:59:41;17.50;99.90
26703;DHT22;14316;51.074;3.704;2023-07-20T05:02:07;17.50;99.90
26703;DHT22;14316;51.074;3.704;2023-07-20T05:04:33;17.40;99.90
26703;DHT22;14316;51.074;3.704;2023-07-20T05:06:59;17.40;99.90
26703;DHT22;14316;51.074;3.704;2023-07-20T05:09:25;17.50;99.90
26703;DHT22;14316;51.074;3.704;2023-07-20T05:11:51;17.60;99.90
26703;DHT22;14316;51.074;3.704;2023-07-20T05:14:17;17.60;99.90
26703;DHT22;14316;51.074;3.704;2023-07-20T05:16:43;17.70;99.90
26703;DHT22;14316;51.074;3.704;2023-07-20T05:19:09;17.80;99.90
26703;DHT22;14316;51.074;3.704;2023-07-20T05:21:35;17.80;99.90
26703;DHT22;14316;51.074;3.704;2023-07-20T05:24:01;17.70;99.90
26703;DHT22;14316;51.074;3.704;2023-07-20T05:26:27;17.60;99.90
26703;DHT22;14316;51.074;3.704;2023-07-20T05:28:53;17.60;99.90
26703;DHT22;14316;51.074;3.704;2023-07-20T05:31:20;17.60;99.90
26703;DHT22;14316;51.074;3.704;2023-07-20T05:33:45;17.80;99.90
26703;DHT22;14316;51.074;3.704;2023-07-20T05:36:11;17.90;99.90
26703;DHT22;14316;51.074;3.704;2023-07-20T05:38:37;18.00;99.90
26703;DHT22;14316;51.074;3.704;2023-07-20T05:41:04;18.00;99.90
26703;DHT22;14316;51.074;3.704;2023-07-20T05:43:30;18.10;99.90
26703;DHT22;14316;51.074;3.704;2023-07-20T05:45:56;18.20;99.90
26703;DHT22;14316;51.074;3.704;2023-07-20T05:48:23;18.30;99.90
26703;DHT22;14316;51.074;3.704;2023-07-20T05:50:49;18.30;99.90
26703;DHT22;14316;51.074;3.704;2023-07-20T05:53:15;18.30;99.90
26703;DHT22;14316;51.074;3.704;2023-07-20T05:55:41;18.50;99.90
26703;DHT22;14316;51.074;3.704;2023-07-20T05:58:07;18.60;99.90
26703;DHT22;14316;51.074;3.704;2023-07-20T06:00:33;18.80;99.90
26703;DHT22;14316;51.074;3.704;2023-07-20T06:02:59;19.00;99.90
26703;DHT22;14316;51.074;3.704;2023-07-20T06:05:24;19.10;99.90
26703;DHT22;14316;51.074;3.704;2023-07-20T06:07:51;19.10;99.90
26703;DHT22;14316;51.074;3.704;2023-07-20T06:10:17;19.30;99.90
26703;DHT22;14316;51.074;3.704;2023-07-20T06:12:43;19.30;99.90
26703;DHT22;14316;51.074;3.704;2023-07-20T06:15:32;19.50;99.90
26703;DHT22;14316;51.074;3.704;2023-07-20T06:18:01;19.60;99.90
26703;DHT22;14316;51.074;3.704;2023-07-20T06:20:27;19.50;99.90
26703;DHT22;14316;51.074;3.704;2023-07-20T06:22:53;19.50;99.90
26703;DHT22;14316;51.074;3.704;2023-07-20T06:25:19;19.70;99.90
26703;DHT22;14316;51.074;3.704;2023-07-20T06:27:49;19.70;99.90
26703;DHT22;14316;51.074;3.704;2023-07-20T06:30:16;19.70;99.90
26703;DHT22;14316;51.074;3.704;2023-07-20T06:32:42;19.70;99.90
26703;DHT22;14316;51.074;3.704;2023-07-20T06:35:08;19.70;99.90
26703;DHT22;14316;51.074;3.704;2023-07-20T06:37:35;19.70;99.90
26703;DHT22;14316;51.074;3.704;2023-07-20T06:40:02;19.80;99.90
26703;DHT22;14316;51.074;3.704;2023-07-20T06:42:29;19.80;99.90
26703;DHT22;14316;51.074;3.704;2023-07-20T06:44:57;20.00;99.90
26703;DHT22;14316;51.074;3.704;2023-07-20T06:47:23;20.00;99.90
26703;DHT22;14316;51.074;3.704;2023-07-20T06:49:49;20.20;99.90
26703;DHT22;14316;51.074;3.704;2023-07-20T06:52:15;20.30;99.90
26703;DHT22;14316;51.074;3.704;2023-07-20T06:54:41;20.50;99.90
26703;DHT22;14316;51.074;3.704;2023-07-20T06:57:07;20.70;99.90
26703;DHT22;14316;51.074;3.704;2023-07-20T06:59:33;20.90;99.90
26703;DHT22;14316;51.074;3.704;2023-07-20T07:01:59;21.10;99.90
26703;DHT22;14316;51.074;3.704;2023-07-20T07:04:25;21.10;99.90
26703;DHT22;14316;51.074;3.704;2023-07-20T07:06:51;21.10;99.90
26703;DHT22;14316;51.074;3.704;2023-07-20T07:09:17;21.10;99.90
26703;DHT22;14316;51.074;3.704;2023-07-20T07:11:44;21.50;99.90
26703;DHT22;14316;51.074;3.704;2023-07-20T07:14:11;21.80;99.90
26703;DHT22;14316;51.074;3.704;2023-07-20T07:16:37;21.90;99.90
26703;DHT22;14316;51.074;3.704;2023-07-20T07:19:04;22.00;99.90
26703;DHT22;14316;51.074;3.704;2023-07-20T07:21:31;22.00;99.90
26703;DHT22;14316;51.074;3.704;2023-07-20T07:23:57;22.00;99.90
26703;DHT22;14316;51.074;3.704;2023-07-20T07:26:25;22.30;99.90
26703;DHT22;14316;51.074;3.704;2023-07-20T07:28:51;22.50;99.90
26703;DHT22;14316;51.074;3.704;2023-07-20T07:31:17;22.50;99.90
26703;DHT22;14316;51.074;3.704;2023-07-20T07:33:43;22.40;99.90
26703;DHT22;14316;51.074;3.704;2023-07-20T07:36:09;22.20;99.90
26703;DHT22;14316;51.074;3.704;2023-07-20T07:38:35;21.80;99.90
26703;DHT22;14316;51.074;3.704;2023-07-20T07:41:01;21.50;99.90
26703;DHT22;14316;51.074;3.704;2023-07-20T07:43:27;21.30;99.90
26703;DHT22;14316;51.074;3.704;2023-07-20T07:45:54;21.40;99.90
26703;DHT22;14316;51.074;3.704;2023-07-20T07:48:21;21.70;99.90
26703;DHT22;14316;51.074;3.704;2023-07-20T07:50:47;21.90;99.90
26703;DHT22;14316;51.074;3.704;2023-07-20T07:53:13;22.20;99.90
26703;DHT22;14316;51.074;3.704;2023-07-20T07:55:39;22.20;99.90
26703;DHT22;14316;51.074;3.704;2023-07-20T07:58:06;22.30;99.90
26703;DHT22;14316;51.074;3.704;2023-07-20T08:00:32;22.10;99.90
26703;DHT22;14316;51.074;3.704;2023-07-20T08:02:58;22.40;99.90
26703;DHT22;14316;51.074;3.704;2023-07-20T08:05:24;22.60;99.90
26703;DHT22;14316;51.074;3.704;2023-07-20T08:07:52;22.50;99.90
26703;DHT22;14316;51.074;3.704;2023-07-20T08:10:18;22.70;99.90
26703;DHT22;14316;51.074;3.704;2023-07-20T08:12:44;22.90;99.90
26703;DHT22;14316;51.074;3.704;2023-07-20T08:15:11;22.60;99.90
26703;DHT22;14316;51.074;3.704;2023-07-20T08:17:38;22.60;99.90
26703;DHT22;14316;51.074;3.704;2023-07-20T08:20:04;22.70;99.90
26703;DHT22;14316;51.074;3.704;2023-07-20T08:22:31;22.90;99.90
26703;DHT22;14316;51.074;3.704;2023-07-20T08:24:57;23.30;99.90
26703;DHT22;14316;51.074;3.704;2023-07-20T08:27:24;23.60;99.90
26703;DHT22;14316;51.074;3.704;2023-07-20T08:29:50;23.90;99.90
26703;DHT22;14316;51.074;3.704;2023-07-20T08:32:16;24.30;99.90
26703;DHT22;14316;51.074;3.704;2023-07-20T08:34:42;23.90;99.90
26703;DHT22;14316;51.074;3.704;2023-07-20T08:37:08;23.60;99.90
26703;DHT22;14316;51.074;3.704;2023-07-20T08:39:35;22.80;99.90
26703;DHT22;14316;51.074;3.704;2023-07-20T08:42:01;23.00;99.90
26703;DHT22;14316;51.074;3.704;2023-07-20T08:44:32;22.90;99.90
26703;DHT22;14316;51.074;3.704;2023-07-20T08:47:00;22.90;99.90
26703;DHT22;14316;51.074;3.704;2023-07-20T08:49:28;23.00;99.90
26703;DHT22;14316;51.074;3.704;2023-07-20T08:51:54;23.10;99.90
26703;DHT22;14316;51.074;3.704;2023-07-20T08:54:20;23.20;99.90
26703;DHT22;14316;51.074;3.704;2023-07-20T08:56:47;23.40;99.90
26703;DHT22;14316;51.074;3.704;2023-07-20T08:59:17;23.80;99.90
26703;DHT22;14316;51.074;3.704;2023-07-20T09:01:44;24.40;99.90
26703;DHT22;14316;51.074;3.704;2023-07-20T09:04:11;25.10;99.90
26703;DHT22;14316;51.074;3.704;2023-07-20T09:06:38;25.60;99.90
26703;DHT22;14316;51.074;3.704;2023-07-20T09:09:04;26.00;99.90
26703;DHT22;14316;51.074;3.704;2023-07-20T09:11:30;26.10;99.90
26703;DHT22;14316;51.074;3.704;2023-07-20T09:14:09;26.00;99.90
26703;DHT22;14316;51.074;3.704;2023-07-20T09:17:05;25.20;99.90
26703;DHT22;14316;51.074;3.704;2023-07-20T09:19:31;24.90;99.90
26703;DHT22;14316;51.074;3.704;2023-07-20T09:21:57;24.80;99.90
26703;DHT22;14316;51.074;3.704;2023-07-20T09:24:23;24.40;99.90
26703;DHT22;14316;51.074;3.704;2023-07-20T09:26:49;23.60;99.90
26703;DHT22;14316;51.074;3.704;2023-07-20T09:29:19;23.70;99.90
26703;DHT22;14316;51.074;3.704;2023-07-20T09:32:03;24.20;99.90
26703;DHT22;14316;51.074;3.704;2023-07-20T09:34:32;24.90;99.90
26703;DHT22;14316;51.074;3.704;2023-07-20T09:37:01;25.30;99.90
26703;DHT22;14316;51.074;3.704;2023-07-20T09:39:27;25.30;99.90
26703;DHT22;14316;51.074;3.704;2023-07-20T09:41:54;25.60;99.90
26703;DHT22;14316;51.074;3.704;2023-07-20T09:44:21;26.10;99.90
26703;DHT22;14316;51.074;3.704;2023-07-20T09:46:48;26.30;99.90
26703;DHT22;14316;51.074;3.704;2023-07-20T09:49:14;26.60;99.90
26703;DHT22;14316;51.074;3.704;2023-07-20T09:51:44;26.50;99.90
26703;DHT22;14316;51.074;3.704;2023-07-20T09:54:10;26.00;99.90
26703;DHT22;14316;51.074;3.704;2023-07-20T09:56:38;25.80;99.90
26703;DHT22;14316;51.074;3.704;2023-07-20T09:59:05;25.10;99.90
26703;DHT22;14316;51.074;3.704;2023-07-20T10:01:33;24.30;99.90
26703;DHT22;14316;51.074;3.704;2023-07-20T10:04:03;24.10;99.90
26703;DHT22;14316;51.074;3.704;2023-07-20T10:06:32;24.00;99.90
26703;DHT22;14316;51.074;3.704;2023-07-20T10:09:01;23.70;99.90
26703;DHT22;14316;51.074;3.704;2023-07-20T10:11:35;23.90;99.90
26703;DHT22;14316;51.074;3.704;2023-07-20T10:14:03;23.90;99.90
26703;DHT22;14316;51.074;3.704;2023-07-20T10:16:35;23.80;99.90
26703;DHT22;14316;51.074;3.704;2023-07-20T10:19:07;24.30;99.90
26703;DHT22;14316;51.074;3.704;2023-07-20T10:21:40;24.70;99.90
26703;DHT22;14316;51.074;3.704;2023-07-20T10:24:08;24.90;99.90
26703;DHT22;14316;51.074;3.704;2023-07-20T10:26:35;24.60;99.90
26703;DHT22;14316;51.074;3.704;2023-07-20T10:29:01;24.70;99.90
26703;DHT22;14316;51.074;3.704;2023-07-20T10:31:29;24.80;99.90
26703;DHT22;14316;51.074;3.704;2023-07-20T10:33:56;24.80;99.90
26703;DHT22;14316;51.074;3.704;2023-07-20T10:36:26;25.20;99.90
26703;DHT22;14316;51.074;3.704;2023-07-20T10:38:54;25.60;99.90
26703;DHT22;14316;51.074;3.704;2023-07-20T10:41:42;26.40;99.90
26703;DHT22;14316;51.074;3.704;2023-07-20T10:44:08;26.60;99.90
26703;DHT22;14316;51.074;3.704;2023-07-20T10:49:08;26.30;99.90
26703;DHT22;14316;51.074;3.704;2023-07-20T10:51:45;27.10;99.90
26703;DHT22;14316;51.074;3.704;2023-07-20T10:56:47;26.00;99.90
26703;DHT22;14316;51.074;3.704;2023-07-20T10:59:19;25.60;99.90
26703;DHT22;14316;51.074;3.704;2023-07-20T11:01:47;25.80;99.90
26703;DHT22;14316;51.074;3.704;2023-07-20T11:04:15;26.50;99.90
26703;DHT22;14316;51.074;3.704;2023-07-20T11:06:46;26.80;99.90
26703;DHT22;14316;51.074;3.704;2023-07-20T11:09:13;27.00;99.90
26703;DHT22;14316;51.074;3.704;2023-07-20T11:11:47;27.10;99.90
26703;DHT22;14316;51.074;3.704;2023-07-20T11:14:22;26.60;99.90
26703;DHT22;14316;51.074;3.704;2023-07-20T11:16:49;26.10;99.90
26703;DHT22;14316;51.074;3.704;2023-07-20T11:19:20;25.60;99.90
26703;DHT22;14316;51.074;3.704;2023-07-20T11:21:53;25.40;99.90
26703;DHT22;14316;51.074;3.704;2023-07-20T11:24:20;25.20;99.90
26703;DHT22;14316;51.074;3.704;2023-07-20T11:26:50;25.00;99.90
26703;DHT22;14316;51.074;3.704;2023-07-20T11:29:18;24.90;99.90
26703;DHT22;14316;51.074;3.704;2023-07-20T11:31:46;25.10;99.90
26703;DHT22;14316;51.074;3.704;2023-07-20T11:34:17;25.30;99.90
26703;DHT22;14316;51.074;3.704;2023-07-20T11:36:48;25.00;99.90
26703;DHT22;14316;51.074;3.704;2023-07-20T11:39:19;24.80;99.90
26703;DHT22;14316;51.074;3.704;2023-07-20T11:42:03;24.80;99.90
26703;DHT22;14316;51.074;3.704;2023-07-20T11:44:31;24.40;99.90
26703;DHT22;14316;51.074;3.704;2023-07-20T11:47:12;23.70;99.90
26703;DHT22;14316;51.074;3.704;2023-07-20T11:49:43;23.20;99.90
26703;DHT22;14316;51.074;3.704;2023-07-20T11:52:14;22.50;99.90
26703;DHT22;14316;51.074;3.704;2023-07-20T11:54:41;22.30;99.90
26703;DHT22;14316;51.074;3.704;2023-07-20T11:57:15;22.40;99.90
26703;DHT22;14316;51.074;3.704;2023-07-20T11:59:53;22.50;99.90
26703;DHT22;14316;51.074;3.704;2023-07-20T12:02:23;22.60;99.90
26703;DHT22;14316;51.074;3.704;2023-07-20T12:04:52;22.80;99.90
26703;DHT22;14316;51.074;3.704;2023-07-20T12:07:21;22.90;99.90
26703;DHT22;14316;51.074;3.704;2023-07-20T12:10:07;23.10;99.90
26703;DHT22;14316;51.074;3.704;2023-07-20T12:12:41;23.30;99.90
26703;DHT22;14316;51.074;3.704;2023-07-20T12:15:17;23.30;99.90
26703;DHT22;14316;51.074;3.704;2023-07-20T12:17:45;23.30;99.90
26703;DHT22;14316;51.074;3.704;2023-07-20T12:20:12;24.10;99.90
26703;DHT22;14316;51.074;3.704;2023-07-20T12:22:43;24.90;99.90
26703;DHT22;14316;51.074;3.704;2023-07-20T12:25:09;24.90;99.90
26703;DHT22;14316;51.074;3.704;2023-07-20T12:27:36;24.80;99.90
26703;DHT22;14316;51.074;3.704;2023-07-20T12:30:05;24.90;99.90
26703;DHT22;14316;51.074;3.704;2023-07-20T12:32:32;25.60;99.90
26703;DHT22;14316;51.074;3.704;2023-07-20T12:34:58;26.80;99.90
26703;DHT22;14316;51.074;3.704;2023-07-20T12:37:26;27.50;99.90
26703;DHT22;14316;51.074;3.704;2023-07-20T12:39:52;29.00;99.90
26703;DHT22;14316;51.074;3.704;2023-07-20T12:42:18;31.20;99.20
26703;DHT22;14316;51.074;3.704;2023-07-20T12:44:44;32.60;95.60
26703;DHT22;14316;51.074;3.704;2023-07-20T12:47:11;33.90;91.70
26703;DHT22;14316;51.074;3.704;2023-07-20T12:49:37;32.00;91.50
26703;DHT22;14316;51.074;3.704;2023-07-20T12:52:03;32.20;91.50
26703;DHT22;14316;51.074;3.704;2023-07-20T12:54:29;31.40;90.10
26703;DHT22;14316;51.074;3.704;2023-07-20T12:56:55;32.40;91.00
26703;DHT22;14316;51.074;3.704;2023-07-20T12:59:21;35.00;81.80
26703;DHT22;14316;51.074;3.704;2023-07-20T13:01:47;36.40;75.00
26703;DHT22;14316;51.074;3.704;2023-07-20T13:04:14;36.80;72.10
26703;DHT22;14316;51.074;3.704;2023-07-20T13:06:40;36.40;69.50
26703;DHT22;14316;51.074;3.704;2023-07-20T13:09:07;35.90;69.80
26703;DHT22;14316;51.074;3.704;2023-07-20T13:11:33;34.90;68.30
26703;DHT22;14316;51.074;3.704;2023-07-20T13:13:59;33.40;65.20
26703;DHT22;14316;51.074;3.704;2023-07-20T13:16:25;29.80;71.20
26703;DHT22;14316;51.074;3.704;2023-07-20T13:18:51;28.70;73.50
26703;DHT22;14316;51.074;3.704;2023-07-20T13:21:18;27.70;76.90
26703;DHT22;14316;51.074;3.704;2023-07-20T13:23:48;26.80;77.70
26703;DHT22;14316;51.074;3.704;2023-07-20T13:26:15;26.20;80.50
26703;DHT22;14316;51.074;3.704;2023-07-20T13:28:41;25.20;83.90
26703;DHT22;14316;51.074;3.704;2023-07-20T13:31:07;24.50;88.10
26703;DHT22;14316;51.074;3.704;2023-07-20T13:33:37;24.10;91.00
26703;DHT22;14316;51.074;3.704;2023-07-20T13:36:04;24.00;91.50
26703;DHT22;14316;51.074;3.704;2023-07-20T13:38:31;23.70;93.20
26703;DHT22;14316;51.074;3.704;2023-07-20T13:40:57;23.60;94.00
26703;DHT22;14316;51.074;3.704;2023-07-20T13:43:23;23.70;95.50
26703;DHT22;14316;51.074;3.704;2023-07-20T13:45:49;23.70;96.30
26703;DHT22;14316;51.074;3.704;2023-07-20T13:48:16;23.70;98.50
26703;DHT22;14316;51.074;3.704;2023-07-20T13:50:45;23.70;97.40
26703;DHT22;14316;51.074;3.704;2023-07-20T13:53:12;23.70;99.90
26703;DHT22;14316;51.074;3.704;2023-07-20T13:55:38;23.70;99.90
26703;DHT22;14316;51.074;3.704;2023-07-20T13:58:04;23.40;99.90
26703;DHT22;14316;51.074;3.704;2023-07-20T14:00:31;23.20;99.90
26703;DHT22;14316;51.074;3.704;2023-07-20T14:02:59;22.90;99.90
26703;DHT22;14316;51.074;3.704;2023-07-20T14:05:25;22.90;99.90
26703;DHT22;14316;51.074;3.704;2023-07-20T14:07:51;23.00;99.90
26703;DHT22;14316;51.074;3.704;2023-07-20T14:10:17;23.00;99.90
26703;DHT22;14316;51.074;3.704;2023-07-20T14:12:45;23.10;99.90
26703;DHT22;14316;51.074;3.704;2023-07-20T14:15:11;23.20;99.90
26703;DHT22;14316;51.074;3.704;2023-07-20T14:17:37;22.80;99.90
26703;DHT22;14316;51.074;3.704;2023-07-20T14:20:04;22.30;99.90
26703;DHT22;14316;51.074;3.704;2023-07-20T14:22:33;22.00;99.90
26703;DHT22;14316;51.074;3.704;2023-07-20T14:25:00;21.80;99.90
26703;DHT22;14316;51.074;3.704;2023-07-20T14:27:26;21.60;99.90
26703;DHT22;14316;51.074;3.704;2023-07-20T14:29:52;21.50;99.90
26703;DHT22;14316;51.074;3.704;2023-07-20T14:32:18;21.60;99.90
26703;DHT22;14316;51.074;3.704;2023-07-20T14:34:44;21.90;99.90
26703;DHT22;14316;51.074;3.704;2023-07-20T14:37:11;22.20;99.90
26703;DHT22;14316;51.074;3.704;2023-07-20T14:39:38;22.40;99.90
26703;DHT22;14316;51.074;3.704;2023-07-20T14:42:05;22.60;99.90
26703;DHT22;14316;51.074;3.704;2023-07-20T14:44:32;22.80;99.90
26703;DHT22;14316;51.074;3.704;2023-07-20T14:46:58;23.10;99.90
26703;DHT22;14316;51.074;3.704;2023-07-20T14:49:26;23.30;99.90
26703;DHT22;14316;51.074;3.704;2023-07-20T14:51:52;23.30;99.90
26703;DHT22;14316;51.074;3.704;2023-07-20T14:54:19;23.00;99.90
26703;DHT22;14316;51.074;3.704;2023-07-20T14:56:49;22.80;99.90
26703;DHT22;14316;51.074;3.704;2023-07-20T14:59:19;22.60;99.90
26703;DHT22;14316;51.074;3.704;2023-07-20T15:01:46;22.50;99.90
26703;DHT22;14316;51.074;3.704;2023-07-20T15:04:12;22.50;99.90
26703;DHT22;14316;51.074;3.704;2023-07-20T15:06:40;22.40;99.90
26703;DHT22;14316;51.074;3.704;2023-07-20T15:09:06;22.50;99.90
26703;DHT22;14316;51.074;3.704;2023-07-20T15:11:32;22.60;99.90
26703;DHT22;14316;51.074;3.704;2023-07-20T15:13:58;22.50;99.90
26703;DHT22;14316;51.074;3.704;2023-07-20T15:16:24;22.60;99.90
26703;DHT22;14316;51.074;3.704;2023-07-20T15:18:50;22.60;99.90
26703;DHT22;14316;51.074;3.704;2023-07-20T15:21:16;22.60;99.90
26703;DHT22;14316;51.074;3.704;2023-07-20T15:23:45;22.80;99.90
26703;DHT22;14316;51.074;3.704;2023-07-20T15:26:12;22.80;99.90
26703;DHT22;14316;51.074;3.704;2023-07-20T15:28:39;23.00;99.90
26703;DHT22;14316;51.074;3.704;2023-07-20T15:31:05;23.00;99.90
26703;DHT22;14316;51.074;3.704;2023-07-20T15:33:31;23.10;99.90
26703;DHT22;14316;51.074;3.704;2023-07-20T15:35:57;23.00;99.90
26703;DHT22;14316;51.074;3.704;2023-07-20T15:38:24;22.90;99.90
26703;DHT22;14316;51.074;3.704;2023-07-20T15:40:50;23.10;99.90
26703;DHT22;14316;51.074;3.704;2023-07-20T15:43:16;23.80;99.90
26703;DHT22;14316;51.074;3.704;2023-07-20T15:45:47;24.90;99.90